BHB - Hancock County/Bar Harbor

Pirep is a free, collaborative database of all public and private airports located within the United States. All pilots are welcome to contribute, edit, and improve any airport they have local knowledge about, no registration required.
Uploaded photos will be licensed under a CC BY-SA 4.0 license. Please only upload photos you have the rights to use.
Tags
Public
Car Rental
METAR / TAF
Webcam
Edit Tags
Food
Camping
Lodging
Bicycles
Swimming
Golfing
Fishing
Hot Springs
Museum
Flying Clubs
Airpark
Upcoming Events
No upcoming events. Is anything happening here soon?
*
*
*

Where exactly on/near the airport is this event taking place?

Is there a webpage with more information for this event?

Who should be contacted for more information?

What is this event all about?

Repeat every
Description
Last updated: 2023-07-08 23:31:24 EDT
Transient Parking
Fuel Location
Landing & Tie-down Fees
Crew Car Availability
Flying Clubs
WiFi Access
Airport Statistics
Location: Bar Harbor, ME
Elevation: 83ft
Sectional: Halifax
Activation date: Apr 1940
Fuel: 100LL, A (prices)
Runway 04/22: 5,200ft
Runway 17/35: 3,363ft
Access: Open to the public
Current Weather — VFR
  • Weather data is strictly informational and not for flight planning purposes.
  • METAR
    2024-04-24 06:56:00 EDT
    Ceiling Wind Temperature Dewpoint Weather Visbility
    Sky clear Calm 37°F 35°F N/A 10SM
    Raw: KBHB 241056Z AUTO 00000KT 10SM CLR 03/02 A2988 RMK AO2 SLP122 T00280017
  • TAF
    2024-04-24 08:00:00 EDT – 2024-04-24 15:00:00 EDT
    Ceiling Wind Weather Visbility
    7,000ft 170° @ 7kt N/A 6SM
    Clouds: Broken @ 7,000ft
    Raw: KBHB 241120Z 2412/2512 17007KT P6SM BKN070 FM241900 20010G20KT 5SM -RA BR OVC023 FM242000 21010G19KT 6SM BR VCSH BKN015 FM242200 27010G20KT P6SM BKN015 FM242300 30011G22KT P6SM BKN029 FM250000 31013G26KT P6SM SCT090
  • TAF
    2024-04-24 15:00:00 EDT – 2024-04-24 16:00:00 EDT
    Ceiling Wind Weather Visbility
    2,300ft 200° @ 10kt, gusts 20kt Light rain, mist 5SM
    Clouds: Overcast @ 2,300ft
    Raw: KBHB 241120Z 2412/2512 17007KT P6SM BKN070 FM241900 20010G20KT 5SM -RA BR OVC023 FM242000 21010G19KT 6SM BR VCSH BKN015 FM242200 27010G20KT P6SM BKN015 FM242300 30011G22KT P6SM BKN029 FM250000 31013G26KT P6SM SCT090
  • TAF
    2024-04-24 16:00:00 EDT – 2024-04-24 18:00:00 EDT
    Ceiling Wind Weather Visbility
    1,500ft 210° @ 10kt, gusts 19kt Mist, showers in vicinity 6SM
    Clouds: Broken @ 1,500ft
    Raw: KBHB 241120Z 2412/2512 17007KT P6SM BKN070 FM241900 20010G20KT 5SM -RA BR OVC023 FM242000 21010G19KT 6SM BR VCSH BKN015 FM242200 27010G20KT P6SM BKN015 FM242300 30011G22KT P6SM BKN029 FM250000 31013G26KT P6SM SCT090
  • TAF
    2024-04-24 18:00:00 EDT – 2024-04-24 19:00:00 EDT
    Ceiling Wind Weather Visbility
    1,500ft 270° @ 10kt, gusts 20kt N/A 6SM
    Clouds: Broken @ 1,500ft
    Raw: KBHB 241120Z 2412/2512 17007KT P6SM BKN070 FM241900 20010G20KT 5SM -RA BR OVC023 FM242000 21010G19KT 6SM BR VCSH BKN015 FM242200 27010G20KT P6SM BKN015 FM242300 30011G22KT P6SM BKN029 FM250000 31013G26KT P6SM SCT090
  • TAF
    2024-04-24 19:00:00 EDT – 2024-04-24 20:00:00 EDT
    Ceiling Wind Weather Visbility
    2,900ft 300° @ 11kt, gusts 22kt N/A 6SM
    Clouds: Broken @ 2,900ft
    Raw: KBHB 241120Z 2412/2512 17007KT P6SM BKN070 FM241900 20010G20KT 5SM -RA BR OVC023 FM242000 21010G19KT 6SM BR VCSH BKN015 FM242200 27010G20KT P6SM BKN015 FM242300 30011G22KT P6SM BKN029 FM250000 31013G26KT P6SM SCT090
  • TAF
    2024-04-24 20:00:00 EDT – 2024-04-25 08:00:00 EDT
    Ceiling Wind Weather Visbility
    Sky clear 310° @ 13kt, gusts 26kt N/A 6SM
    Clouds: Scattered @ 9,000ft
    Raw: KBHB 241120Z 2412/2512 17007KT P6SM BKN070 FM241900 20010G20KT 5SM -RA BR OVC023 FM242000 21010G19KT 6SM BR VCSH BKN015 FM242200 27010G20KT P6SM BKN015 FM242300 30011G22KT P6SM BKN029 FM250000 31013G26KT P6SM SCT090
Click/tap to add an annotation marker to the map
Direct links to live image URLs will be displayed inline on this page. URLs to separate webpages will be linked to.
URL:
Direct links to live image URLs will be displayed inline on this page. URLs to separate webpages will be linked to.
URL:
Remarks
  • Existed prior to 1959.
  • Birds on & invof arpt.
  • Durg vfr conds when wind speed less than 5 kts as rprtd by awos or unicom, all acft using rwy 04/22 are reqd to tkof & land on rwy 22 for noise abatement procs.
  • Twy bravo clsd to all acft gtr than 10000 lbs.
  • Ppr for overweight ldgs. ppr for unsked acr ops rqrg 14 cfr 139 arff. ctc amgr.
  • Twys f & g clsd dec 1- mar 31 annually.
  • Seaplane ramp unavbl for acft ops exc ppr 207-667-7329.
  • Ficon not mnt mon-fri 2100-0730, wkends & hols.
Comments
Leave a comment What was your experience like at this airport?